Flight Track Log - Related Links

Times and Time Zones

All times are in EDT time to prevent confusion due to time zone crossing. See the DAL3698 flight status page for this flight to view local times or setup timezone preferences in your user account.

Time Position Orientation Groundspeed Altitude Reporting Facility
EDT Latitude Longitude Course Direction KTS MPH feet Rate Location/Type
Wed 07:22:33 AM 42.7858 -84.5500 11° North 154 177 2,700  Level Cleveland Center
Wed 07:23:33 AM 42.8364 -84.5361 11° North 196 226 4,000 2,102 Climbing Cleveland Center
Wed 07:25:30 AM 42.8664 -84.6903 285° West 234 269 8,900 2,413 Climbing Chicago Center
Wed 07:26:32 AM 42.8739 -84.7822 276° West 240 276 11,200 2,244 Climbing Chicago Center
Wed 07:27:33 AM 42.8819 -84.8772 277° West 251 289 13,500 2,164 Climbing Chicago Center
Wed 07:28:34 AM 42.8903 -84.9728 277° West 254 292 15,600 1,869 Climbing Chicago Center
Wed 07:29:35 AM 42.8983 -85.0700 276° West 258 297 17,300 1,525 Climbing Chicago Center
Wed 07:30:36 AM 42.9061 -85.1728 276° West 271 312 18,700 1,328 Climbing Chicago Center
Wed 07:31:37 AM 42.9150 -85.2789 277° West 282 325 20,000 1,279 Climbing Chicago Center
Wed 07:32:38 AM 42.9233 -85.3911 276° West 293 337 21,300 1,279 Climbing Chicago Center
Wed 07:33:39 AM 42.9322 -85.5031 276° West 299 344 22,600 1,171 Climbing Chicago Center
Wed 07:34:41 AM 42.9414 -85.6178 276° West 302 348 23,700 1,122 Climbing Chicago Center
Wed 07:35:42 AM 42.9519 -85.7606 276° West 313 360 24,900 1,082 Climbing Chicago Center
Wed 07:36:43 AM 42.9611 -85.8833 276° West 321 369 25,900 878 Climbing Chicago Center
Wed 07:37:45 AM 42.9700 -86.0122 275° West 331 381 26,700 683 Climbing Chicago Center
Wed 07:38:46 AM 42.9792 -86.1158 277° West 333 383 27,300 639 Climbing Chicago Center
Wed 07:39:47 AM 42.9903 -86.2714 276° West 341 392 28,000 344 Climbing Chicago Center
Wed 07:40:48 AM 42.9997 -86.4072 275° West 358 412 28,000  Level Chicago Center
Wed 07:41:50 AM 43.0103 -86.5492 276° West 372 428 28,000  Level Chicago Center
Wed 07:42:51 AM 43.0197 -86.6864 275° West 365 420 28,000  Level Chicago Center
Wed 07:43:52 AM 43.0292 -86.8239 275° West 367 422 28,000  Level Chicago Center
Wed 07:44:54 AM 43.0386 -86.9581 276° West 356 410 28,000  Level Chicago Center
Wed 07:45:55 AM 43.0461 -87.0881 275° West 344 396 28,000  Level Chicago Center
Wed 07:46:56 AM 43.0547 -87.2186 275° West 347 399 28,000  Level Chicago Center
Wed 07:47:58 AM 43.0639 -87.3425 276° West 334 384 28,000  Level Chicago Center
Wed 07:48:59 AM 43.0708 -87.4878 274° West 332 382 28,000  Level Chicago Center
Wed 07:50:00 AM 43.0789 -87.6136 275° West 330 380 28,000  Level Chicago Center
Wed 07:51:02 AM 43.0856 -87.7372 274° West 327 376 28,000  Level Chicago Center
Wed 07:52:03 AM 43.0931 -87.8625 275° West 326 375 28,000  Level Chicago Center
Wed 07:53:05 AM 43.1000 -87.9861 274° West 325 374 28,000  Level Chicago Center
Wed 07:54:06 AM 43.1364 -88.1022 293° West 340 391 28,000  Level Chicago Center
Wed 07:55:07 AM 43.2031 -88.2286 306° West 350 403 28,000  Level Chicago Center
Wed 07:56:09 AM 43.2603 -88.3389 305° West 353 406 28,000  Level Chicago Center
Wed 07:57:10 AM 43.3161 -88.4483 305° West 349 402 28,000  Level Chicago Center
Wed 07:58:12 AM 43.3744 -88.5619 305° West 353 406 28,000  Level Chicago Center
Wed 07:59:13 AM 43.4328 -88.6744 306° West 354 407 28,000  Level Chicago Center
Wed 08:00:15 AM 43.4897 -88.7864 305° West 353 406 28,000  Level Chicago Center
Wed 08:01:16 AM 43.5461 -88.8961 305° West 351 404 28,000  Level Chicago Center
Wed 08:02:18 AM 43.6019 -89.0075 305° West 352 405 28,000  Level Chicago Center
Wed 08:03:16 AM 43.6575 -89.1167 305° West 349 402 28,000  Level Minneapolis Center
Wed 08:04:17 AM 43.7131 -89.2264 305° West 348 400 28,000  Level Minneapolis Center
Wed 08:05:18 AM 43.7669 -89.3372 304° West 348 400 28,000  Level Minneapolis Center
Wed 08:06:19 AM 43.8225 -89.4483 305° West 350 403 28,000  Level Minneapolis Center
Wed 08:07:20 AM 43.8786 -89.5597 305° West 350 403 28,000  Level Minneapolis Center
Wed 08:08:21 AM 43.9336 -89.6731 304° West 353 406 28,000  Level Minneapolis Center
Wed 08:09:22 AM 43.9911 -89.7875 305° West 360 414 28,000  Level Minneapolis Center
Wed 08:10:23 AM 44.0472 -89.9028 304° West 361 415 28,000  Level Minneapolis Center
Wed 08:11:24 AM 44.1058 -90.0194 305° West 366 421 28,000  Level Minneapolis Center
Wed 08:12:25 AM 44.1803 -90.1514 308° West 371 427 28,000  Level Minneapolis Center
Wed 08:13:26 AM 44.2447 -90.2661 308° West 375 432 28,000  Level Minneapolis Center
Wed 08:14:27 AM 44.2881 -90.3917 296° West 362 417 28,000  Level Minneapolis Center
Wed 08:15:29 AM 44.3278 -90.5197 293° West 360 414 28,000  Level Minneapolis Center
Wed 08:16:30 AM 44.3694 -90.6442 295° West 355 409 28,000  Level Minneapolis Center
Wed 08:17:31 AM 44.4086 -90.7697 294° West 354 407 28,000 -246 Level Minneapolis Center
Wed 08:18:32 AM 44.4483 -90.8956 294° West 355 409 27,500 -1,377 Descending Minneapolis Center
Wed 08:19:33 AM 44.4928 -91.0386 294° West 365 420 25,200 -2,066 Descending Minneapolis Center
Wed 08:20:34 AM 44.5347 -91.1739 294° West 376 433 23,300 -1,918 Descending Minneapolis Center
Wed 08:21:35 AM 44.5753 -91.3056 293° West 374 430 21,300 -2,016 Descending Minneapolis Center
Wed 08:22:36 AM 44.6128 -91.4300 293° West 358 412 19,200 -1,967 Descending Minneapolis Center
Wed 08:23:37 AM 44.6506 -91.5492 294° West 320 368 17,300 -1,854 Descending Minneapolis Center
Wed 08:24:39 AM 44.6853 -91.6611 294° West 333 383 15,400 -1,733 Descending Minneapolis Center
Wed 08:25:52 AM 44.7222 -91.7822 293° West 337 388 13,400 -2,171 Descending Minneapolis Center
Wed 08:26:24 AM 44.7644 -91.8836 300° West 350 403 11,600 -2,885 Descending FAA TRACON SMA TRACON (SMA)
Wed 08:26:44 AM 44.7789 -91.9319 293° West 352 405 10,900 -1,950 Descending FAA TRACON SMA TRACON (SMA)
Wed 08:27:04 AM 44.7867 -91.9717 285° West 348 400 10,300 -1,350 Descending FAA TRACON SMA TRACON (SMA)
Wed 08:27:24 AM 44.7992 -92.0097 295° West 347 399 10,000 -439 Descending FAA TRACON SMA TRACON (SMA)
Wed 08:27:45 AM 44.8131 -92.0556 293° West 336 387 10,000  Level FAA TRACON SMA TRACON (SMA)
Wed 08:28:04 AM 44.8217 -92.0911 289° West 322 371 10,000  Level FAA TRACON SMA TRACON (SMA)
Wed 08:28:24 AM 44.8322 -92.1258 293° West 315 362 10,000  Level FAA TRACON SMA TRACON (SMA)
Wed 08:28:45 AM 44.8428 -92.1694 289° West 308 354 10,000  Level FAA TRACON SMA TRACON (SMA)
Wed 08:29:04 AM 44.8556 -92.2036 298° West 313 360 10,000  Level FAA TRACON SMA TRACON (SMA)
Wed 08:29:24 AM 44.8642 -92.2381 289° West 308 354 10,000  Level FAA TRACON SMA TRACON (SMA)
Wed 08:29:45 AM 44.8767 -92.2803 293° West 306 352 10,000  Level FAA TRACON SMA TRACON (SMA)
Wed 08:30:05 AM 44.8844 -92.3147 288° West 301 346 10,000  Level FAA TRACON SMA TRACON (SMA)
Wed 08:30:25 AM 44.8828 -92.3600 267° West 300 345 10,000  Level FAA TRACON SMA TRACON (SMA)
Wed 08:30:45 AM 44.8747 -92.3953 252° West 303 349 10,000  Level FAA TRACON SMA TRACON (SMA)
Wed 08:31:05 AM 44.8683 -92.4297 255° West 302 348 10,000  Level FAA TRACON SMA TRACON (SMA)
Wed 08:31:24 AM 44.8619 -92.4647 256° West 301 346 10,000  Level FAA TRACON SMA TRACON (SMA)
Wed 08:31:44 AM 44.8525 -92.5083 253° West 301 346 10,000  Level FAA TRACON SMA TRACON (SMA)
Wed 08:32:05 AM 44.8461 -92.5433 256° West 299 344 10,000  Level FAA TRACON SMA TRACON (SMA)
Wed 08:32:24 AM 44.8389 -92.5778 254° West 299 344 10,000  Level FAA TRACON SMA TRACON (SMA)
Wed 08:32:44 AM 44.8300 -92.6208 254° West 298 343 10,000  Level FAA TRACON SMA TRACON (SMA)
Wed 08:33:04 AM 44.8239 -92.6556 256° West 298 343 10,000  Level FAA TRACON SMA TRACON (SMA)
Wed 08:33:24 AM 44.8164 -92.6908 253° West 299 344 10,000  Level FAA TRACON SMA TRACON (SMA)
Wed 08:33:45 AM 44.8075 -92.7339 254° West 299 344 10,000  Level FAA TRACON SMA TRACON (SMA)
Wed 08:34:04 AM 44.8014 -92.7683 256° West 297 342 10,000  Level FAA TRACON SMA TRACON (SMA)
Wed 08:34:25 AM 44.7939 -92.8031 253° West 298 343 10,000  Level FAA TRACON SMA TRACON (SMA)
Wed 08:34:45 AM 44.7853 -92.8464 254° West 299 344 10,000  Level FAA TRACON SMA TRACON (SMA)
Wed 08:35:05 AM 44.7786 -92.8808 255° West 299 344 10,000 -450 Level FAA TRACON SMA TRACON (SMA)
Wed 08:35:25 AM 44.7733 -92.9161 258° West 299 344 9,700 -1,200 Descending FAA TRACON SMA TRACON (SMA)
Wed 08:35:45 AM 44.7744 -92.9611 272° West 301 346 9,200 -1,050 Descending FAA TRACON SMA TRACON (SMA)
Wed 08:36:05 AM 44.7783 -92.9967 279° West 300 345 9,000 -293 Descending FAA TRACON SMA TRACON (SMA)
Wed 08:36:26 AM 44.7817 -93.0322 278° West 297 342 9,000 -146 Level FAA TRACON SMA TRACON (SMA)
Wed 08:36:46 AM 44.7864 -93.0756 279° West 293 337 8,900 -450 Descending FAA TRACON SMA TRACON (SMA)
Wed 08:37:06 AM 44.7900 -93.1111 278° West 296 341 8,700 -450 Descending FAA TRACON SMA TRACON (SMA)
Wed 08:37:26 AM 44.7933 -93.1467 278° West 299 344 8,600 -462 Descending FAA TRACON SMA TRACON (SMA)
Wed 08:37:45 AM 44.7967 -93.1828 277° West 300 345 8,400 -462 Descending FAA TRACON SMA TRACON (SMA)
Wed 08:38:05 AM 44.8011 -93.2283 278° West 302 348 8,300 -450 Descending FAA TRACON SMA TRACON (SMA)
Wed 08:38:25 AM 44.8042 -93.2642 277° West 301 346 8,100 -750 Descending FAA TRACON SMA TRACON (SMA)
Wed 08:38:45 AM 44.8075 -93.3000 277° West 300 345 7,800 -750 Descending FAA TRACON SMA TRACON (SMA)
Wed 08:39:05 AM 44.8111 -93.3439 277° West 295 339 7,600 -750 Descending FAA TRACON SMA TRACON (SMA)
Wed 08:39:25 AM 44.8139 -93.3783 276° West 289 333 7,300 -750 Descending FAA TRACON SMA TRACON (SMA)
Wed 08:39:45 AM 44.8206 -93.4114 286° West 286 329 7,100 -900 Descending FAA TRACON SMA TRACON (SMA)
Wed 08:40:05 AM 44.8333 -93.4500 295° West 282 325 6,700 -1,650 Descending FAA TRACON SMA TRACON (SMA)
Wed 08:40:25 AM 44.8439 -93.4803 296° West 280 322 6,000 -1,950 Descending FAA TRACON SMA TRACON (SMA)
Wed 08:40:45 AM 44.8539 -93.5111 295° West 282 325 5,400 -1,950 Descending FAA TRACON SMA TRACON (SMA)
Wed 08:41:05 AM 44.8681 -93.5497 297° West 287 330 4,700 -1,800 Descending FAA TRACON SMA TRACON (SMA)
Wed 08:41:25 AM 44.8864 -93.5708 321° Northwest 287 330 4,200 -1,050 Descending FAA TRACON SMA TRACON (SMA)
Wed 08:41:45 AM 44.9075 -93.5764 349° North 274 315 4,000 -300 Descending FAA TRACON SMA TRACON (SMA)
Wed 08:42:05 AM 44.9306 -93.5683 14° North 235 270 4,000  Level FAA TRACON SMA TRACON (SMA)
Wed 08:42:26 AM 44.9464 -93.5603 20° North 210 242 4,000  Level FAA TRACON SMA TRACON (SMA)
Wed 08:42:46 AM 44.9550 -93.5419 56° Northeast 200 230 4,000  Level FAA TRACON SMA TRACON (SMA)
Wed 08:43:06 AM 44.9575 -93.5156 82° East 177 204 4,000  Level FAA TRACON SMA TRACON (SMA)
Wed 08:43:26 AM 44.9589 -93.4939 85° East 176 203 4,000  Level FAA TRACON SMA TRACON (SMA)
Wed 08:43:45 AM 44.9606 -93.4728 84° East 176 203 4,000  Level FAA TRACON SMA TRACON (SMA)
Wed 08:44:05 AM 44.9617 -93.4525 86° East 172 198 4,000  Level FAA TRACON SMA TRACON (SMA)
Wed 08:44:25 AM 44.9631 -93.4278 85° East 164 189 4,000 -300 Level FAA TRACON SMA TRACON (SMA)
Wed 08:44:45 AM 44.9622 -93.4086 94° East 161 185 3,800 -600 Descending FAA TRACON SMA TRACON (SMA)
Wed 08:45:05 AM 44.9564 -93.3917 116° Southeast 162 186 3,600 -900 Descending FAA TRACON SMA TRACON (SMA)
Wed 08:45:25 AM 44.9478 -93.3722 122° Southeast 153 176 3,200 -900 Descending FAA TRACON SMA TRACON (SMA)
Wed 08:45:45 AM 44.9411 -93.3572 122° Southeast 148 170 3,000 -750 Descending FAA TRACON SMA TRACON (SMA)
Wed 08:46:05 AM 44.9342 -93.3422 123° Southeast 146 168 2,700 -900 Descending FAA TRACON SMA TRACON (SMA)
Wed 08:46:25 AM 44.9269 -93.3256 121° Southeast 134 154 2,400 -750 Descending FAA TRACON SMA TRACON (SMA)
Wed 08:46:45 AM 44.9214 -93.3117 119° Southeast 130 150 2,200 -600 Descending FAA TRACON SMA TRACON (SMA)
Wed 08:47:05 AM 44.9153 -93.2975 121° Southeast 133 153 2,000 -750 Descending FAA TRACON SMA TRACON (SMA)
Wed 08:47:25 AM 44.9078 -93.2800 121° Southeast 135 155 1,700 -750 Descending FAA TRACON SMA TRACON (SMA)
Wed 08:47:45 AM 44.9017 -93.2661 122° Southeast 136 157 1,500 -750 Descending FAA TRACON SMA TRACON (SMA)
Wed 08:48:05 AM 44.8953 -93.2517 122° Southeast 140 161 1,200 -750 Descending FAA TRACON SMA TRACON (SMA)
Wed 08:48:25 AM 44.8889 -93.2372 122° Southeast 140 161 1,000 -600 Descending FAA TRACON SMA TRACON (SMA)
Wed 08:50:00 AM 44.8820 -93.2218 69° East  Level Estimated
Wed 08:57:00 AM 44.8820 -93.2218 69° East  Level Estimated

Login

Don't have an account? Register now (free) for customized features, flight alerts, and more!